createdAt,value
2022-08-09T00:02:56.041Z,15.00
2022-08-09T00:06:23.792Z,9.40
2022-08-09T00:09:51.565Z,10.20
2022-08-09T00:13:19.013Z,5.70
2022-08-09T00:16:46.825Z,7.80
2022-08-09T00:20:15.562Z,8.90
2022-08-09T00:23:55.578Z,10.30
2022-08-09T00:27:30.524Z,13.10
2022-08-09T00:31:30.238Z,11.80
2022-08-09T00:34:52.954Z,9.30
2022-08-09T00:38:21.594Z,14.00
2022-08-09T00:44:19.481Z,8.50
2022-08-09T00:45:38.719Z,11.90
2022-08-09T00:49:20.718Z,11.10
2022-08-09T00:52:50.372Z,8.90
2022-08-09T00:56:20.513Z,7.30
2022-08-09T00:59:52.395Z,14.10
2022-08-09T01:03:28.538Z,17.00
2022-08-09T01:07:01.631Z,12.60
2022-08-09T01:10:36.636Z,16.10
2022-08-09T01:14:11.794Z,12.90
2022-08-09T01:17:47.522Z,11.70
2022-08-09T01:21:24.815Z,10.40
2022-08-09T01:25:12.366Z,8.30
2022-08-09T01:28:45.636Z,7.40
2022-08-09T01:32:31.927Z,11.50
2022-08-09T01:36:17.205Z,10.30
2022-08-09T01:39:49.291Z,7.00
2022-08-09T01:43:19.239Z,10.60
2022-08-09T01:46:53.166Z,8.60
2022-08-09T01:50:29.946Z,12.70
2022-08-09T01:54:07.269Z,9.70
2022-08-09T01:57:45.911Z,11.60
2022-08-09T02:01:20.282Z,11.10
2022-08-09T02:05:02.738Z,14.30
2022-08-09T02:08:57.602Z,16.10
2022-08-09T02:12:25.728Z,12.50
2022-08-09T02:15:56.747Z,9.90
2022-08-09T02:19:24.904Z,11.90
2022-08-09T02:23:12.181Z,7.80
2022-08-09T02:26:42.664Z,12.20
2022-08-09T02:30:12.630Z,9.10
2022-08-09T02:34:06.812Z,8.80
2022-08-09T02:37:38.529Z,7.70
2022-08-09T02:41:16.385Z,8.40
2022-08-09T02:44:49.144Z,12.30
2022-08-09T02:48:19.432Z,8.70
2022-08-09T02:52:03.736Z,12.40
2022-08-09T02:55:53.765Z,9.00
2022-08-09T02:59:26.507Z,7.40
2022-08-09T03:03:08.562Z,5.80
2022-08-09T03:06:41.553Z,8.30
2022-08-09T03:10:15.499Z,11.20
2022-08-09T03:13:59.254Z,9.90
2022-08-09T03:17:28.218Z,13.10
2022-08-09T03:20:58.242Z,8.30
2022-08-09T03:24:31.566Z,8.40
2022-08-09T03:28:15.920Z,11.60
2022-08-09T03:31:59.801Z,9.70
2022-08-09T03:35:44.163Z,7.20
2022-08-09T03:39:16.562Z,7.40
2022-08-09T03:42:45.028Z,14.40
2022-08-09T03:46:27.116Z,12.60
2022-08-09T03:49:58.879Z,12.30
2022-08-09T03:53:32.286Z,10.10
2022-08-09T03:57:18.389Z,12.50
2022-08-09T04:00:53.134Z,13.20
2022-08-09T04:04:24.625Z,8.00
2022-08-09T04:07:57.139Z,10.80
2022-08-09T04:11:26.773Z,16.40
2022-08-09T04:15:01.830Z,13.50
2022-08-09T04:18:32.777Z,10.50
2022-08-09T04:22:02.772Z,10.20
2022-08-09T04:25:30.273Z,11.40
2022-08-09T04:28:58.346Z,7.60
2022-08-09T04:32:33.767Z,12.70
2022-08-09T04:36:04.738Z,13.50
2022-08-09T04:39:40.582Z,17.00
2022-08-09T04:43:08.105Z,12.30
2022-08-09T04:46:37.338Z,15.60
2022-08-09T04:50:22.973Z,23.70
2022-08-09T04:53:59.300Z,25.30
2022-08-09T04:57:27.232Z,23.90
2022-08-09T05:01:16.243Z,22.30
2022-08-09T05:04:47.395Z,29.10
2022-08-09T05:08:15.208Z,21.80
2022-08-09T05:11:43.532Z,18.20
2022-08-09T05:15:38.541Z,15.00
2022-08-09T05:19:00.510Z,12.20
2022-08-09T05:22:54.222Z,9.40
2022-08-09T05:26:26.533Z,10.30
2022-08-09T05:30:03.863Z,12.60
2022-08-09T05:33:32.794Z,12.20
2022-08-09T05:37:01.773Z,5.80
2022-08-09T05:40:32.336Z,12.70
2022-08-09T05:43:59.555Z,9.80
2022-08-09T05:47:30.346Z,9.30
2022-08-09T05:51:29.783Z,8.80
2022-08-09T05:54:49.222Z,6.70
2022-08-09T05:58:18.390Z,9.30
2022-08-09T06:01:45.631Z,9.10
2022-08-09T06:05:16.307Z,5.90
2022-08-09T06:08:43.529Z,5.50
2022-08-09T06:12:19.816Z,7.50
2022-08-09T06:15:51.484Z,10.50
2022-08-09T06:19:23.031Z,6.40
2022-08-09T06:22:53.844Z,10.70
2022-08-09T06:26:28.635Z,10.90
2022-08-09T06:30:08.726Z,13.70
2022-08-09T06:33:42.177Z,5.90
2022-08-09T06:37:23.796Z,12.10
2022-08-09T06:40:59.213Z,5.60
2022-08-09T06:44:30.693Z,8.60
2022-08-09T06:48:01.529Z,6.80
2022-08-09T06:51:32.117Z,8.70
2022-08-09T06:55:00.701Z,8.50
2022-08-09T07:00:46.777Z,5.40
2022-08-09T07:02:30.802Z,7.50
2022-08-09T07:06:09.486Z,14.20
2022-08-09T07:09:55.252Z,7.70
2022-08-09T07:13:30.395Z,14.20
2022-08-09T07:16:58.605Z,7.00
2022-08-09T07:20:29.690Z,8.50
2022-08-09T07:24:00.784Z,9.90
2022-08-09T07:27:42.624Z,13.60
2022-08-09T07:31:10.893Z,7.80
2022-08-09T07:34:45.696Z,9.90
2022-08-09T07:38:17.356Z,8.90
2022-08-09T07:41:52.897Z,8.30
2022-08-09T07:45:38.114Z,7.90
2022-08-09T07:49:19.791Z,7.70
2022-08-09T07:52:48.996Z,8.60
2022-08-09T07:56:27.232Z,6.50
2022-08-09T08:00:02.747Z,9.40
2022-08-09T08:03:40.401Z,9.80
2022-08-09T08:07:57.278Z,11.30
2022-08-09T08:11:15.375Z,12.30
2022-08-09T08:14:48.023Z,6.30
2022-08-09T08:18:18.259Z,12.20
2022-08-09T08:21:52.617Z,10.30
2022-08-09T08:25:21.002Z,7.20
2022-08-09T08:28:50.900Z,6.10
2022-08-09T08:32:29.230Z,9.10
2022-08-09T08:36:03.532Z,11.70
2022-08-09T08:39:43.698Z,7.70
2022-08-09T08:43:13.898Z,7.00
2022-08-09T08:46:59.750Z,9.20
2022-08-09T08:50:34.227Z,7.40
2022-08-09T08:54:29.906Z,9.30
2022-08-09T08:58:01.570Z,5.90
2022-08-09T09:01:35.661Z,7.50
2022-08-09T09:05:57.600Z,9.90
2022-08-09T09:09:21.096Z,8.20
2022-08-09T09:13:09.296Z,7.70
2022-08-09T09:16:39.011Z,7.90
2022-08-09T09:20:16.208Z,7.30
2022-08-09T09:23:58.125Z,5.30
2022-08-09T09:28:06.150Z,8.10
2022-08-09T09:32:03.651Z,10.10
2022-08-09T09:35:15.851Z,6.70
2022-08-09T09:38:51.123Z,4.90
2022-08-09T09:42:28.342Z,4.50
2022-08-09T09:46:41.768Z,5.60
2022-08-09T09:50:14.497Z,5.10
2022-08-09T09:54:01.193Z,6.40
2022-08-09T09:58:03.390Z,2.90
2022-08-09T10:01:30.875Z,4.70
2022-08-09T10:05:15.037Z,5.40
2022-08-09T10:09:03.175Z,6.40
2022-08-09T10:12:57.433Z,6.70
2022-08-09T10:16:57.223Z,6.50
2022-08-09T10:20:35.631Z,3.40
2022-08-09T10:24:16.090Z,7.90
2022-08-09T10:27:56.851Z,5.30
2022-08-09T10:32:27.837Z,7.20
2022-08-09T10:35:14.805Z,7.80
2022-08-09T10:38:55.920Z,5.70
2022-08-09T10:42:29.705Z,6.80
2022-08-09T10:46:03.242Z,4.30
2022-08-09T10:49:51.720Z,4.80
2022-08-09T10:53:54.520Z,7.50
2022-08-09T10:57:23.769Z,5.00
2022-08-09T11:03:01.742Z,9.70
2022-08-09T11:04:55.576Z,17.20
2022-08-09T11:08:47.702Z,9.30
2022-08-09T11:12:20.218Z,4.60
2022-08-09T11:16:04.503Z,8.80
2022-08-09T11:20:12.026Z,5.70
2022-08-09T11:24:06.146Z,8.00
2022-08-09T11:28:05.583Z,4.20
2022-08-09T11:31:57.399Z,4.60
2022-08-09T11:35:49.630Z,4.30
2022-08-09T11:39:19.098Z,6.50
2022-08-09T11:42:53.055Z,4.00
2022-08-09T11:46:33.002Z,3.70
2022-08-09T11:50:56.228Z,7.70
2022-08-09T11:54:28.483Z,5.60
2022-08-09T11:58:06.094Z,6.40
2022-08-09T12:02:16.076Z,5.20
2022-08-09T12:05:37.988Z,7.90
2022-08-09T12:09:19.707Z,5.70
2022-08-09T12:12:52.758Z,7.20
2022-08-09T12:16:30.721Z,4.00
2022-08-09T12:20:21.853Z,4.80
2022-08-09T12:24:09.134Z,6.70
2022-08-09T12:29:15.213Z,5.30
2022-08-09T12:31:31.130Z,6.00
2022-08-09T12:35:22.276Z,5.90
2022-08-09T12:38:51.803Z,3.20
2022-08-09T12:42:22.963Z,5.90
2022-08-09T12:46:00.106Z,3.90
2022-08-09T12:49:31.095Z,6.00
2022-08-09T12:53:18.392Z,3.80
2022-08-09T12:56:56.770Z,5.30
2022-08-09T13:00:30.514Z,7.90
2022-08-09T13:07:50.666Z,3.40
2022-08-09T13:11:30.424Z,5.20
2022-08-09T13:15:11.317Z,3.90
2022-08-09T13:18:53.861Z,4.90
2022-08-09T13:22:37.218Z,3.90
2022-08-09T13:26:36.976Z,9.60
2022-08-09T13:30:50.763Z,6.40
2022-08-09T13:34:00.242Z,9.10
2022-08-09T13:37:52.176Z,4.30
2022-08-09T13:41:59.138Z,5.00
2022-08-09T13:45:21.161Z,5.20
2022-08-09T13:48:50.781Z,3.80
2022-08-09T13:52:22.506Z,5.70
2022-08-09T13:55:53.706Z,7.70
2022-08-09T13:59:25.373Z,4.80
2022-08-09T14:03:57.771Z,5.60
2022-08-09T14:06:54.926Z,3.30
2022-08-09T14:10:37.596Z,4.10
2022-08-09T14:14:26.142Z,4.20
2022-08-09T14:18:16.610Z,6.90
2022-08-09T14:21:48.333Z,9.60
2022-08-09T14:25:19.406Z,6.20
2022-08-09T14:28:53.324Z,3.10
2022-08-09T14:32:28.717Z,4.70
2022-08-09T14:35:59.318Z,8.50
2022-08-09T14:39:50.768Z,6.10
2022-08-09T14:43:19.084Z,4.40
2022-08-09T14:47:01.474Z,3.20
2022-08-09T14:50:36.877Z,2.90
2022-08-09T14:54:04.998Z,3.90
2022-08-09T14:57:43.123Z,7.40
2022-08-09T15:01:11.449Z,3.40
2022-08-09T15:04:40.552Z,5.20
2022-08-09T15:08:10.291Z,13.40
2022-08-09T15:11:38.505Z,7.50
2022-08-09T15:15:08.937Z,6.30
2022-08-09T15:18:37.680Z,3.90
2022-08-09T15:22:06.515Z,6.30
2022-08-09T15:25:40.788Z,6.60
2022-08-09T15:29:09.727Z,7.40
2022-08-09T15:32:59.352Z,9.00
2022-08-09T15:36:31.410Z,9.90
2022-08-09T15:39:58.901Z,7.10
2022-08-09T15:43:29.919Z,5.50
2022-08-09T15:47:05.193Z,7.40
2022-08-09T15:50:32.724Z,7.10
2022-08-09T15:54:03.927Z,6.30
2022-08-09T15:57:44.329Z,7.20
2022-08-09T16:04:46.488Z,6.10
2022-08-09T16:08:30.599Z,5.00
2022-08-09T16:11:59.971Z,3.40
2022-08-09T16:16:04.562Z,5.80
2022-08-09T16:19:20.650Z,4.80
2022-08-09T16:22:52.627Z,5.10
2022-08-09T16:26:35.273Z,3.90
2022-08-09T16:30:06.798Z,3.40
2022-08-09T16:33:38.783Z,3.80
2022-08-09T16:37:08.134Z,6.60
2022-08-09T16:40:41.818Z,6.80
2022-08-09T16:44:11.186Z,5.80
2022-08-09T16:48:38.471Z,2.80
2022-08-09T16:51:29.750Z,4.90
2022-08-09T16:54:57.347Z,4.50
2022-08-09T16:58:26.262Z,4.70
2022-08-09T17:01:55.145Z,4.80
2022-08-09T17:06:08.093Z,5.40
2022-08-09T17:09:45.764Z,4.00
2022-08-09T17:13:03.526Z,2.70
2022-08-09T17:16:38.236Z,3.90
2022-08-09T17:20:29.826Z,5.00
2022-08-09T17:24:21.066Z,7.60
2022-08-09T17:27:49.608Z,4.60
2022-08-09T17:31:22.335Z,7.40
2022-08-09T17:35:10.424Z,5.70
2022-08-09T17:38:39.547Z,9.70
2022-08-09T17:42:13.577Z,7.30
2022-08-09T17:46:02.606Z,7.00
2022-08-09T17:49:33.680Z,5.40
2022-08-09T17:53:02.524Z,3.30
2022-08-09T17:56:35.990Z,4.50
2022-08-09T18:00:05.787Z,6.20
2022-08-09T18:03:40.666Z,7.20
2022-08-09T18:07:09.524Z,5.60
2022-08-09T18:11:02.210Z,3.90
2022-08-09T18:14:32.387Z,5.10
2022-08-09T18:18:08.170Z,5.40
2022-08-09T18:21:41.530Z,6.10
2022-08-09T18:25:14.461Z,3.60
2022-08-09T18:30:40.346Z,5.00
2022-08-09T18:32:39.442Z,5.80
2022-08-09T18:36:14.357Z,7.40
2022-08-09T18:39:57.681Z,11.30
2022-08-09T18:43:27.085Z,5.70
2022-08-09T18:47:03.366Z,8.90
2022-08-09T18:50:34.902Z,8.60
2022-08-09T18:54:16.529Z,13.50
2022-08-09T18:57:49.512Z,9.50
2022-08-09T19:01:26.293Z,12.00
2022-08-09T19:05:04.279Z,12.60
2022-08-09T19:08:55.330Z,12.70
2022-08-09T19:12:37.282Z,7.50
2022-08-09T19:16:09.754Z,13.30
2022-08-09T19:19:52.325Z,7.40
2022-08-09T19:24:31.573Z,8.00
2022-08-09T19:27:34.141Z,7.90
2022-08-09T19:31:07.760Z,10.50
2022-08-09T19:34:49.619Z,16.30
2022-08-09T19:38:25.532Z,15.50
2022-08-09T19:41:59.482Z,11.50
2022-08-09T19:45:40.186Z,12.00
2022-08-09T19:53:06.218Z,7.60
2022-08-09T19:56:44.558Z,11.40
2022-08-09T20:00:21.400Z,11.60
2022-08-09T20:04:10.848Z,5.40
2022-08-09T20:07:58.742Z,9.50
2022-08-09T20:11:42.892Z,10.60
2022-08-09T20:16:35.774Z,8.90
2022-08-09T20:19:47.491Z,6.20
2022-08-09T20:26:34.418Z,12.30
2022-08-09T20:30:07.717Z,8.10
2022-08-09T20:33:52.493Z,5.30
2022-08-09T20:38:23.902Z,7.10
2022-08-09T20:41:38.826Z,6.90
2022-08-09T20:46:00.077Z,9.90
2022-08-09T20:49:15.874Z,5.60
2022-08-09T20:52:48.978Z,7.50
2022-08-09T20:56:26.343Z,7.50
2022-08-09T21:00:30.778Z,3.90
2022-08-09T21:04:08.065Z,5.90
2022-08-09T21:07:44.999Z,5.90
2022-08-09T21:19:01.454Z,7.40
2022-08-09T21:22:38.604Z,4.10
2022-08-09T21:26:08.866Z,5.30
2022-08-09T21:29:49.500Z,4.10
2022-08-09T21:33:19.641Z,7.40
2022-08-09T21:36:55.839Z,5.60
2022-08-09T21:40:30.712Z,5.30
2022-08-09T21:44:02.875Z,6.40
2022-08-09T21:47:35.193Z,9.50
2022-08-09T21:51:13.459Z,7.80
2022-08-09T21:54:49.697Z,4.60
2022-08-09T21:58:31.106Z,6.70
2022-08-09T22:02:01.039Z,7.80
2022-08-09T22:05:35.552Z,8.80
2022-08-09T22:09:05.962Z,6.70
2022-08-09T22:12:40.710Z,5.30
2022-08-09T22:16:18.016Z,7.80
2022-08-09T22:19:58.589Z,8.70
2022-08-09T22:23:35.566Z,4.50
2022-08-09T22:27:18.785Z,6.60
2022-08-09T22:30:48.810Z,8.20
2022-08-09T22:34:16.905Z,8.80
2022-08-09T22:37:48.219Z,5.30
2022-08-09T22:41:34.845Z,6.10
2022-08-09T22:48:12.675Z,6.40
2022-08-09T22:48:50.672Z,7.40
2022-08-09T22:52:19.741Z,5.60
2022-08-09T22:56:30.604Z,7.10
2022-08-09T22:59:58.289Z,7.40
2022-08-09T23:04:02.371Z,6.90
2022-08-09T23:08:09.425Z,5.80
2022-08-09T23:11:17.357Z,5.00
2022-08-09T23:14:46.510Z,8.50
2022-08-09T23:18:14.337Z,4.50
2022-08-09T23:21:43.021Z,6.00
2022-08-09T23:25:12.152Z,4.70
2022-08-09T23:28:40.118Z,7.40
2022-08-09T23:32:08.047Z,8.20
2022-08-09T23:36:07.032Z,6.50
2022-08-09T23:39:23.047Z,5.80
2022-08-09T23:42:51.982Z,6.90
2022-08-09T23:46:19.348Z,13.00
2022-08-09T23:49:48.410Z,7.40
2022-08-09T23:53:17.245Z,5.50
2022-08-09T23:56:54.043Z,5.50
